createdAt,value
2018-06-16T00:03:45.353Z,77.80
2018-06-16T00:08:48.473Z,77.80
2018-06-16T00:13:51.540Z,77.90
2018-06-16T00:18:54.597Z,77.50
2018-06-16T00:23:57.640Z,77.70
2018-06-16T00:29:00.704Z,77.80
2018-06-16T00:34:03.748Z,78.00
2018-06-16T00:39:07.880Z,77.90
2018-06-16T00:44:10.954Z,77.80
2018-06-16T00:49:13.979Z,78.20
2018-06-16T00:54:17.033Z,78.50
2018-06-16T00:59:20.076Z,78.80
2018-06-16T01:04:23.125Z,79.00
2018-06-16T01:09:26.156Z,79.10
2018-06-16T01:14:29.192Z,79.10
2018-06-16T01:19:32.273Z,79.30
2018-06-16T01:24:35.337Z,79.40
2018-06-16T01:29:38.388Z,79.40
2018-06-16T01:34:41.521Z,79.60
2018-06-16T01:39:45.009Z,79.80
2018-06-16T01:44:48.044Z,79.80
2018-06-16T01:49:51.084Z,79.80
2018-06-16T01:54:54.125Z,80.10
2018-06-16T01:59:57.193Z,80.10
2018-06-16T02:05:00.241Z,80.40
2018-06-16T02:10:03.287Z,80.40
2018-06-16T02:15:06.356Z,80.50
2018-06-16T02:20:09.417Z,80.60
2018-06-16T02:25:12.476Z,80.50
2018-06-16T02:30:15.517Z,80.40
2018-06-16T02:35:18.577Z,80.20
2018-06-16T02:40:21.632Z,80.00
2018-06-16T02:45:24.668Z,80.40
2018-06-16T02:50:27.880Z,80.50
2018-06-16T02:55:30.865Z,80.30
2018-06-16T03:00:33.936Z,80.30
2018-06-16T03:05:37.042Z,80.40
2018-06-16T03:10:40.107Z,80.40
2018-06-16T03:15:43.239Z,80.50
2018-06-16T03:20:46.277Z,80.40
2018-06-16T03:25:49.364Z,80.40
2018-06-16T03:30:52.398Z,80.40
2018-06-16T03:35:55.432Z,80.80
2018-06-16T03:40:58.484Z,81.00
2018-06-16T03:46:01.537Z,81.20
2018-06-16T03:56:07.461Z,81.00
2018-06-16T04:01:10.500Z,81.00
2018-06-16T04:06:13.577Z,80.90
2018-06-16T04:11:17.696Z,81.20
2018-06-16T04:16:20.762Z,81.40
2018-06-16T04:21:23.821Z,81.80
2018-06-16T04:26:26.877Z,82.20
2018-06-16T04:31:30.518Z,82.20
2018-06-16T04:36:33.588Z,82.60
2018-06-16T04:41:37.654Z,83.30
2018-06-16T04:46:40.684Z,83.00
2018-06-16T04:51:43.741Z,82.80
2018-06-16T04:56:46.797Z,82.30
2018-06-16T05:01:49.853Z,82.90
2018-06-16T05:06:52.900Z,82.90
2018-06-16T05:11:55.933Z,82.80
2018-06-16T05:16:59.149Z,82.20
2018-06-16T05:22:02.169Z,81.60
2018-06-16T05:27:09.862Z,81.20
2018-06-16T05:32:13.156Z,80.80
2018-06-16T05:42:19.376Z,79.80
2018-06-16T05:47:22.543Z,79.60
2018-06-16T05:52:25.661Z,79.40
2018-06-16T05:57:30.197Z,78.70
2018-06-16T06:02:33.350Z,78.50
2018-06-16T06:07:36.445Z,77.00
2018-06-16T06:12:39.721Z,75.60
2018-06-16T06:17:42.892Z,74.60
2018-06-16T06:22:46.038Z,73.80
2018-06-16T06:27:49.297Z,73.80
2018-06-16T06:32:52.401Z,72.90
2018-06-16T06:37:55.594Z,72.20
2018-06-16T06:48:01.650Z,69.90
2018-06-16T06:53:04.729Z,69.00
2018-06-16T06:58:07.776Z,68.60
2018-06-16T07:03:10.840Z,68.30
2018-06-16T07:08:15.101Z,67.30
2018-06-16T07:13:18.165Z,66.20
2018-06-16T07:18:21.215Z,66.50
2018-06-16T07:23:24.276Z,66.00
2018-06-16T07:28:27.482Z,66.40
2018-06-16T07:38:33.528Z,65.30
2018-06-16T07:43:37.399Z,62.60
2018-06-16T07:48:40.455Z,62.20
2018-06-16T07:53:43.505Z,61.90
2018-06-16T07:58:46.541Z,60.40
2018-06-16T08:03:49.597Z,61.70
2018-06-16T08:08:52.642Z,59.60
2018-06-16T08:13:55.709Z,59.10
2018-06-16T08:18:58.785Z,58.60
2018-06-16T08:24:01.854Z,58.20
2018-06-16T08:29:06.194Z,57.00
2018-06-16T08:34:09.236Z,54.60
2018-06-16T08:39:12.774Z,55.20
2018-06-16T08:44:15.894Z,53.60
2018-06-16T08:49:18.949Z,52.60
2018-06-16T08:54:22.018Z,51.80
2018-06-16T08:59:25.146Z,52.70
2018-06-16T09:04:28.237Z,51.10
2018-06-16T09:09:31.280Z,50.70
2018-06-16T09:19:37.356Z,53.00
2018-06-16T09:24:40.432Z,51.10
2018-06-16T09:29:43.652Z,51.90
2018-06-16T09:34:46.716Z,50.10
2018-06-16T09:39:49.800Z,48.60
2018-06-16T09:44:53.530Z,48.30
2018-06-16T09:54:59.445Z,48.80
2018-06-16T10:00:02.541Z,47.60
2018-06-16T10:05:06.013Z,48.30
2018-06-16T10:10:09.281Z,49.60
2018-06-16T10:15:12.344Z,49.80
2018-06-16T10:20:15.405Z,49.10
2018-06-16T10:25:18.461Z,49.40
2018-06-16T10:30:21.537Z,48.40
2018-06-16T10:35:24.613Z,47.10
2018-06-16T10:40:27.696Z,47.00
2018-06-16T10:45:30.803Z,46.90
2018-06-16T10:50:33.884Z,46.70
2018-06-16T10:55:36.983Z,47.60
2018-06-16T11:00:40.086Z,47.40
2018-06-16T11:05:43.145Z,47.10
2018-06-16T11:10:46.213Z,45.10
2018-06-16T11:15:49.265Z,43.80
2018-06-16T11:25:55.299Z,44.70
2018-06-16T11:30:58.361Z,43.20
2018-06-16T11:36:01.412Z,43.60
2018-06-16T11:41:04.486Z,43.00
2018-06-16T11:46:07.537Z,43.20
2018-06-16T11:51:10.590Z,42.30
2018-06-16T11:56:13.661Z,43.60
2018-06-16T12:01:16.709Z,45.40
2018-06-16T12:06:19.781Z,45.90
2018-06-16T12:11:23.105Z,44.90
2018-06-16T12:16:26.172Z,46.10
2018-06-16T12:21:29.343Z,45.40
2018-06-16T12:26:35.721Z,45.20
2018-06-16T12:31:38.789Z,44.50
2018-06-16T12:36:41.900Z,43.70
2018-06-16T12:41:44.989Z,43.60
2018-06-16T12:46:48.049Z,43.70
2018-06-16T12:51:51.109Z,43.60
2018-06-16T12:56:54.216Z,43.80
2018-06-16T13:01:57.285Z,43.80
2018-06-16T13:07:00.334Z,44.00
2018-06-16T13:12:03.517Z,43.80
2018-06-16T13:22:09.860Z,43.50
2018-06-16T13:27:12.964Z,43.20
2018-06-16T13:32:16.010Z,42.60
2018-06-16T13:37:19.089Z,43.60
2018-06-16T13:42:22.349Z,42.80
2018-06-16T13:47:25.426Z,42.90
2018-06-16T13:52:28.493Z,42.70
2018-06-16T13:57:31.561Z,42.90
2018-06-16T14:02:34.619Z,42.10
2018-06-16T14:07:37.701Z,42.80
2018-06-16T14:12:40.800Z,42.60
2018-06-16T14:17:43.880Z,41.60
2018-06-16T14:22:46.922Z,41.30
2018-06-16T14:27:50.001Z,41.10
2018-06-16T14:32:53.552Z,41.50
2018-06-16T14:37:56.632Z,41.60
2018-06-16T14:42:59.888Z,41.50
2018-06-16T14:48:20.005Z,41.00
2018-06-16T14:53:23.116Z,40.00
2018-06-16T14:58:27.860Z,40.70
2018-06-16T15:03:30.913Z,40.30
2018-06-16T15:18:40.712Z,41.10
2018-06-16T15:23:44.629Z,40.70
2018-06-16T15:28:47.693Z,40.30
2018-06-16T15:33:50.780Z,41.00
2018-06-16T15:38:53.833Z,41.60
2018-06-16T15:43:56.893Z,39.70
2018-06-16T15:48:59.937Z,40.70
2018-06-16T15:54:03.019Z,41.30
2018-06-16T15:59:06.142Z,40.50
2018-06-16T16:04:09.237Z,39.70
2018-06-16T16:09:12.293Z,39.30
2018-06-16T16:14:15.364Z,39.80
2018-06-16T16:19:18.413Z,39.50
2018-06-16T16:24:21.492Z,40.60
2018-06-16T16:29:24.696Z,40.70
2018-06-16T16:34:27.842Z,40.20
2018-06-16T16:39:31.220Z,41.60
2018-06-16T16:44:34.389Z,41.90
2018-06-16T16:49:37.523Z,40.80
2018-06-16T16:59:43.833Z,40.40
2018-06-16T17:04:47.559Z,41.10
2018-06-16T17:14:54.020Z,40.70
2018-06-16T17:19:57.149Z,42.00
2018-06-16T17:25:00.192Z,41.10
2018-06-16T17:30:03.237Z,43.10
2018-06-16T17:35:06.298Z,43.90
2018-06-16T17:40:09.516Z,42.50
2018-06-16T17:45:12.565Z,43.80
2018-06-16T17:50:15.713Z,46.00
2018-06-16T17:55:18.826Z,47.40
2018-06-16T18:00:21.925Z,48.80
2018-06-16T18:05:25.000Z,49.70
2018-06-16T18:10:28.165Z,50.00
2018-06-16T18:15:31.265Z,50.20
2018-06-16T18:20:34.309Z,50.50
2018-06-16T18:25:37.361Z,51.40
2018-06-16T18:30:40.486Z,52.30
2018-06-16T18:35:43.552Z,53.60
2018-06-16T18:40:46.620Z,54.10
2018-06-16T18:45:49.712Z,54.70
2018-06-16T18:50:52.813Z,54.90
2018-06-16T18:55:55.893Z,54.70
2018-06-16T19:00:58.972Z,55.70
2018-06-16T19:06:02.033Z,55.90
2018-06-16T19:11:05.138Z,56.40
2018-06-16T19:16:11.208Z,57.50
2018-06-16T19:21:14.242Z,57.60
2018-06-16T19:26:19.841Z,58.60
2018-06-16T19:31:22.937Z,59.00
2018-06-16T19:36:26.051Z,59.40
2018-06-16T19:41:29.118Z,60.10
2018-06-16T19:46:38.390Z,59.60
2018-06-16T19:51:41.517Z,58.90
2018-06-16T19:56:44.536Z,58.70
2018-06-16T20:01:47.706Z,60.20
2018-06-16T20:06:51.298Z,61.70
2018-06-16T20:16:57.361Z,64.00
2018-06-16T20:22:00.381Z,64.50
2018-06-16T20:32:32.400Z,65.80
2018-06-16T20:37:56.601Z,67.00
2018-06-16T20:43:38.093Z,67.90
2018-06-16T20:48:41.338Z,68.90
2018-06-16T20:53:56.503Z,69.60
2018-06-16T20:58:59.677Z,69.40
2018-06-16T21:14:10.612Z,70.40
2018-06-16T21:19:13.757Z,70.70
2018-06-16T21:24:16.825Z,71.70
2018-06-16T21:29:20.201Z,71.70
2018-06-16T21:34:23.270Z,72.20
2018-06-16T21:39:26.309Z,72.60
2018-06-16T21:44:29.386Z,72.90
2018-06-16T21:49:33.022Z,74.00
2018-06-16T21:54:36.049Z,74.80
2018-06-16T21:59:39.101Z,75.20
2018-06-16T22:04:42.140Z,75.60
2018-06-16T22:09:45.186Z,75.90
2018-06-16T22:14:48.281Z,76.40
2018-06-16T22:19:51.333Z,77.00
2018-06-16T22:29:57.397Z,77.50
2018-06-16T22:35:00.436Z,77.70
2018-06-16T22:40:03.730Z,78.10
2018-06-16T22:45:06.776Z,78.50
2018-06-16T22:50:09.858Z,78.70
2018-06-16T22:55:13.016Z,78.90
2018-06-16T23:00:21.444Z,79.30
2018-06-16T23:05:24.485Z,79.60
2018-06-16T23:10:27.567Z,79.70
2018-06-16T23:15:30.705Z,79.90
2018-06-16T23:20:33.769Z,80.10
2018-06-16T23:25:36.821Z,80.40
2018-06-16T23:30:39.861Z,80.50
2018-06-16T23:35:42.909Z,80.70
2018-06-16T23:40:45.949Z,80.90
2018-06-16T23:45:49.056Z,81.00
2018-06-16T23:50:52.205Z,81.20
2018-06-16T23:55:55.328Z,81.40
